sensor_id;sensor_type;location;lat;lon;timestamp;pressure;altitude;pressure_sealevel;temperature;humidity
38225;BME280;24025;48.138;11.428;2023-11-21T00:00:18;95043.44;;;7.26;87.22
38225;BME280;24025;48.138;11.428;2023-11-21T00:02:50;95049.88;;;7.25;87.36
38225;BME280;24025;48.138;11.428;2023-11-21T00:05:21;95048.78;;;7.29;89.06
38225;BME280;24025;48.138;11.428;2023-11-21T00:07:54;95038.69;;;7.35;88.70
38225;BME280;24025;48.138;11.428;2023-11-21T00:10:26;95026.53;;;7.34;87.60
38225;BME280;24025;48.138;11.428;2023-11-21T00:12:58;95019.81;;;7.17;88.15
38225;BME280;24025;48.138;11.428;2023-11-21T00:15:29;95014.66;;;7.05;89.19
38225;BME280;24025;48.138;11.428;2023-11-21T00:18:01;95001.69;;;7.00;90.44
38225;BME280;24025;48.138;11.428;2023-11-21T00:20:33;95004.03;;;7.05;90.52
38225;BME280;24025;48.138;11.428;2023-11-21T00:23:04;94990.50;;;7.10;90.69
38225;BME280;24025;48.138;11.428;2023-11-21T00:25:36;94992.41;;;7.09;89.50
38225;BME280;24025;48.138;11.428;2023-11-21T00:28:07;94993.97;;;7.14;90.32
38225;BME280;24025;48.138;11.428;2023-11-21T00:30:39;94980.03;;;7.17;89.73
38225;BME280;24025;48.138;11.428;2023-11-21T00:33:12;94977.78;;;7.19;89.34
38225;BME280;24025;48.138;11.428;2023-11-21T00:35:44;94962.28;;;7.21;88.90
38225;BME280;24025;48.138;11.428;2023-11-21T00:38:15;94962.00;;;7.26;89.25
38225;BME280;24025;48.138;11.428;2023-11-21T00:40:51;94963.97;;;7.33;88.86
38225;BME280;24025;48.138;11.428;2023-11-21T00:43:22;94965.94;;;7.13;90.32
38225;BME280;24025;48.138;11.428;2023-11-21T00:45:55;94960.13;;;7.27;89.35
38225;BME280;24025;48.138;11.428;2023-11-21T00:48:26;94965.78;;;7.25;90.28
38225;BME280;24025;48.138;11.428;2023-11-21T00:50:58;94961.13;;;7.19;89.77
38225;BME280;24025;48.138;11.428;2023-11-21T00:53:29;94962.38;;;7.25;89.22
38225;BME280;24025;48.138;11.428;2023-11-21T00:56:01;94961.25;;;7.26;89.28
38225;BME280;24025;48.138;11.428;2023-11-21T00:58:33;94964.31;;;7.28;88.85
38225;BME280;24025;48.138;11.428;2023-11-21T01:01:05;94958.69;;;7.33;88.88
38225;BME280;24025;48.138;11.428;2023-11-21T01:03:37;94963.28;;;7.36;88.34
38225;BME280;24025;48.138;11.428;2023-11-21T01:06:09;94965.19;;;7.35;89.01
38225;BME280;24025;48.138;11.428;2023-11-21T01:08:43;94968.97;;;7.34;89.29
38225;BME280;24025;48.138;11.428;2023-11-21T01:11:15;94963.66;;;7.34;88.52
38225;BME280;24025;48.138;11.428;2023-11-21T01:13:46;94962.88;;;7.34;88.83
38225;BME280;24025;48.138;11.428;2023-11-21T01:16:18;94967.44;;;7.33;88.62
38225;BME280;24025;48.138;11.428;2023-11-21T01:18:49;94967.06;;;7.35;88.46
38225;BME280;24025;48.138;11.428;2023-11-21T01:21:21;94967.44;;;7.33;88.77
38225;BME280;24025;48.138;11.428;2023-11-21T01:23:54;94965.09;;;7.32;89.08
38225;BME280;24025;48.138;11.428;2023-11-21T01:26:26;94969.28;;;7.33;88.80
38225;BME280;24025;48.138;11.428;2023-11-21T01:28:58;94970.09;;;7.33;88.57
38225;BME280;24025;48.138;11.428;2023-11-21T01:31:30;94959.47;;;7.33;88.41
38225;BME280;24025;48.138;11.428;2023-11-21T01:34:02;94962.53;;;7.35;88.31
38225;BME280;24025;48.138;11.428;2023-11-21T01:36:34;94967.06;;;7.35;88.60
38225;BME280;24025;48.138;11.428;2023-11-21T01:39:06;94969.66;;;7.31;88.72
38225;BME280;24025;48.138;11.428;2023-11-21T01:41:40;94972.72;;;7.33;88.75
38225;BME280;24025;48.138;11.428;2023-11-21T01:44:11;94968.53;;;7.32;88.59
38225;BME280;24025;48.138;11.428;2023-11-21T01:46:47;94972.25;;;7.28;89.65
38225;BME280;24025;48.138;11.428;2023-11-21T01:49:19;94978.69;;;7.27;89.14
38225;BME280;24025;48.138;11.428;2023-11-21T01:51:52;94980.13;;;7.24;89.68
38225;BME280;24025;48.138;11.428;2023-11-21T01:54:23;94980.56;;;7.26;89.81
38225;BME280;24025;48.138;11.428;2023-11-21T01:56:55;94980.56;;;7.26;89.82
38225;BME280;24025;48.138;11.428;2023-11-21T01:59:27;94979.50;;;7.31;90.06
38225;BME280;24025;48.138;11.428;2023-11-21T02:02:06;94981.78;;;7.32;90.13
38225;BME280;24025;48.138;11.428;2023-11-21T02:04:38;94989.06;;;7.35;89.97
38225;BME280;24025;48.138;11.428;2023-11-21T02:07:09;94983.38;;;7.37;90.02
38225;BME280;24025;48.138;11.428;2023-11-21T02:09:41;94986.81;;;7.37;89.93
38225;BME280;24025;48.138;11.428;2023-11-21T02:12:14;94986.00;;;7.33;89.22
38225;BME280;24025;48.138;11.428;2023-11-21T02:14:46;94986.50;;;7.20;88.75
38225;BME280;24025;48.138;11.428;2023-11-21T02:17:19;94986.56;;;7.23;89.32
38225;BME280;24025;48.138;11.428;2023-11-21T02:19:51;94994.47;;;7.20;89.77
38225;BME280;24025;48.138;11.428;2023-11-21T02:22:24;94996.97;;;6.90;90.19
38225;BME280;24025;48.138;11.428;2023-11-21T02:24:58;94986.81;;;6.72;91.53
38225;BME280;24025;48.138;11.428;2023-11-21T02:27:29;94983.66;;;6.86;91.69
38225;BME280;24025;48.138;11.428;2023-11-21T02:30:01;94984.13;;;6.92;91.51
38225;BME280;24025;48.138;11.428;2023-11-21T02:32:35;94981.94;;;6.97;91.24
38225;BME280;24025;48.138;11.428;2023-11-21T02:35:19;94982.44;;;7.03;91.40
38225;BME280;24025;48.138;11.428;2023-11-21T02:37:54;94968.81;;;7.04;92.00
38225;BME280;24025;48.138;11.428;2023-11-21T02:40:26;94966.03;;;6.97;92.68
38225;BME280;24025;48.138;11.428;2023-11-21T02:42:58;94964.63;;;7.03;92.70
38225;BME280;24025;48.138;11.428;2023-11-21T02:45:31;94963.28;;;6.90;93.20
38225;BME280;24025;48.138;11.428;2023-11-21T02:48:03;94961.50;;;6.98;93.64
38225;BME280;24025;48.138;11.428;2023-11-21T02:50:36;94957.09;;;7.05;93.17
38225;BME280;24025;48.138;11.428;2023-11-21T02:53:09;94955.34;;;7.13;91.83
38225;BME280;24025;48.138;11.428;2023-11-21T02:55:42;94960.75;;;7.20;91.92
38225;BME280;24025;48.138;11.428;2023-11-21T02:58:13;94961.25;;;7.26;92.43
38225;BME280;24025;48.138;11.428;2023-11-21T03:00:46;94961.28;;;7.29;91.89
38225;BME280;24025;48.138;11.428;2023-11-21T03:03:17;94963.97;;;7.33;92.31
38225;BME280;24025;48.138;11.428;2023-11-21T03:05:49;94960.66;;;7.36;93.09
38225;BME280;24025;48.138;11.428;2023-11-21T03:08:21;94961.44;;;7.40;92.34
38225;BME280;24025;48.138;11.428;2023-11-21T03:10:52;94962.66;;;7.20;91.74
38225;BME280;24025;48.138;11.428;2023-11-21T03:13:24;94960.53;;;7.29;91.90
38225;BME280;24025;48.138;11.428;2023-11-21T03:15:56;94953.34;;;7.29;92.20
38225;BME280;24025;48.138;11.428;2023-11-21T03:18:27;94956.81;;;7.33;91.58
38225;BME280;24025;48.138;11.428;2023-11-21T03:21:00;94961.41;;;7.14;92.38
38225;BME280;24025;48.138;11.428;2023-11-21T03:23:32;94954.34;;;7.21;93.18
38225;BME280;24025;48.138;11.428;2023-11-21T03:26:03;94957.28;;;7.16;92.97
38225;BME280;24025;48.138;11.428;2023-11-21T03:28:35;94956.81;;;7.10;93.06
38225;BME280;24025;48.138;11.428;2023-11-21T03:31:07;94948.75;;;7.03;93.11
38225;BME280;24025;48.138;11.428;2023-11-21T03:33:40;94962.47;;;7.09;93.29
38225;BME280;24025;48.138;11.428;2023-11-21T03:36:11;94958.97;;;7.05;93.79
38225;BME280;24025;48.138;11.428;2023-11-21T03:38:43;94956.34;;;7.05;93.60
38225;BME280;24025;48.138;11.428;2023-11-21T03:41:15;94957.16;;;7.09;92.65
38225;BME280;24025;48.138;11.428;2023-11-21T03:43:46;94956.81;;;7.10;92.38
38225;BME280;24025;48.138;11.428;2023-11-21T03:46:18;94956.63;;;7.00;91.60
38225;BME280;24025;48.138;11.428;2023-11-21T03:48:50;94948.38;;;7.05;91.54
38225;BME280;24025;48.138;11.428;2023-11-21T03:51:21;94944.03;;;6.93;92.22
38225;BME280;24025;48.138;11.428;2023-11-21T03:53:53;94941.78;;;6.95;92.04
38225;BME280;24025;48.138;11.428;2023-11-21T03:56:25;94939.91;;;6.96;91.13
38225;BME280;24025;48.138;11.428;2023-11-21T03:58:56;94951.16;;;6.89;90.65
38225;BME280;24025;48.138;11.428;2023-11-21T04:01:28;94940.13;;;6.87;91.71
38225;BME280;24025;48.138;11.428;2023-11-21T04:04:00;94949.28;;;6.90;91.70
38225;BME280;24025;48.138;11.428;2023-11-21T04:06:31;94951.50;;;6.88;91.85
38225;BME280;24025;48.138;11.428;2023-11-21T04:09:04;94952.47;;;6.79;91.74
38225;BME280;24025;48.138;11.428;2023-11-21T04:11:36;94956.03;;;6.87;91.67
38225;BME280;24025;48.138;11.428;2023-11-21T04:14:08;94951.84;;;6.86;91.05
38225;BME280;24025;48.138;11.428;2023-11-21T04:16:40;94946.53;;;6.86;90.49
38225;BME280;24025;48.138;11.428;2023-11-21T04:19:12;94936.78;;;6.90;90.86
38225;BME280;24025;48.138;11.428;2023-11-21T04:21:47;94944.59;;;6.83;91.43
38225;BME280;24025;48.138;11.428;2023-11-21T04:24:18;94952.19;;;6.85;91.66
38225;BME280;24025;48.138;11.428;2023-11-21T04:26:50;94952.91;;;6.81;91.32
38225;BME280;24025;48.138;11.428;2023-11-21T04:29:21;94950.19;;;6.78;90.49
38225;BME280;24025;48.138;11.428;2023-11-21T04:31:54;94962.97;;;6.72;91.18
38225;BME280;24025;48.138;11.428;2023-11-21T04:34:25;94956.81;;;6.68;91.51
38225;BME280;24025;48.138;11.428;2023-11-21T04:36:57;94957.53;;;6.65;92.55
38225;BME280;24025;48.138;11.428;2023-11-21T04:39:28;94955.78;;;6.53;93.78
38225;BME280;24025;48.138;11.428;2023-11-21T04:42:00;94955.88;;;6.57;94.50
38225;BME280;24025;48.138;11.428;2023-11-21T04:44:31;94962.34;;;6.60;93.83
38225;BME280;24025;48.138;11.428;2023-11-21T04:47:03;94953.94;;;6.54;94.82
38225;BME280;24025;48.138;11.428;2023-11-21T04:49:36;94952.81;;;6.55;94.52
38225;BME280;24025;48.138;11.428;2023-11-21T04:52:08;94960.41;;;6.57;94.79
38225;BME280;24025;48.138;11.428;2023-11-21T04:54:40;94959.22;;;6.54;95.16
38225;BME280;24025;48.138;11.428;2023-11-21T04:57:12;94961.88;;;6.54;94.50
38225;BME280;24025;48.138;11.428;2023-11-21T04:59:43;94959.69;;;6.60;94.66
38225;BME280;24025;48.138;11.428;2023-11-21T05:02:15;94958.94;;;6.59;94.66
38225;BME280;24025;48.138;11.428;2023-11-21T05:05:05;94960.41;;;6.57;94.29
38225;BME280;24025;48.138;11.428;2023-11-21T05:07:39;94956.44;;;6.47;94.95
38225;BME280;24025;48.138;11.428;2023-11-21T05:10:12;94961.94;;;6.58;93.68
38225;BME280;24025;48.138;11.428;2023-11-21T05:12:46;94962.56;;;6.51;94.17
38225;BME280;24025;48.138;11.428;2023-11-21T05:15:18;94965.19;;;6.51;94.63
38225;BME280;24025;48.138;11.428;2023-11-21T05:17:49;94962.19;;;6.52;94.78
38225;BME280;24025;48.138;11.428;2023-11-21T05:20:21;94973.31;;;6.39;93.77
38225;BME280;24025;48.138;11.428;2023-11-21T05:22:53;94971.69;;;6.34;94.01
38225;BME280;24025;48.138;11.428;2023-11-21T05:25:25;94970.91;;;6.34;92.99
38225;BME280;24025;48.138;11.428;2023-11-21T05:27:56;94968.34;;;6.37;93.58
38225;BME280;24025;48.138;11.428;2023-11-21T05:30:30;94967.59;;;6.37;93.10
38225;BME280;24025;48.138;11.428;2023-11-21T05:33:02;94969.25;;;6.45;91.97
38225;BME280;24025;48.138;11.428;2023-11-21T05:35:34;94967.25;;;6.38;92.50
38225;BME280;24025;48.138;11.428;2023-11-21T05:38:06;94969.88;;;6.38;92.49
38225;BME280;24025;48.138;11.428;2023-11-21T05:40:38;94964.66;;;6.42;92.65
38225;BME280;24025;48.138;11.428;2023-11-21T05:43:09;94968.16;;;6.46;92.14
38225;BME280;24025;48.138;11.428;2023-11-21T05:45:41;94976.66;;;6.55;91.87
38225;BME280;24025;48.138;11.428;2023-11-21T05:48:13;94983.06;;;6.54;91.86
38225;BME280;24025;48.138;11.428;2023-11-21T05:50:45;94986.94;;;6.60;91.21
38225;BME280;24025;48.138;11.428;2023-11-21T05:53:16;94985.06;;;6.61;91.25
38225;BME280;24025;48.138;11.428;2023-11-21T05:55:48;94990.09;;;6.66;91.42
38225;BME280;24025;48.138;11.428;2023-11-21T05:58:19;94994.22;;;6.63;91.23
38225;BME280;24025;48.138;11.428;2023-11-21T06:00:51;94993.22;;;6.52;91.32
38225;BME280;24025;48.138;11.428;2023-11-21T06:03:23;94990.91;;;6.50;91.35
38225;BME280;24025;48.138;11.428;2023-11-21T06:05:54;94995.88;;;6.52;91.70
38225;BME280;24025;48.138;11.428;2023-11-21T06:08:26;94993.31;;;6.56;91.30
38225;BME280;24025;48.138;11.428;2023-11-21T06:10:57;95001.03;;;6.64;91.25
38225;BME280;24025;48.138;11.428;2023-11-21T06:13:29;94999.44;;;6.60;90.95
38225;BME280;24025;48.138;11.428;2023-11-21T06:16:01;95006.59;;;6.59;91.22
38225;BME280;24025;48.138;11.428;2023-11-21T06:18:33;95000.91;;;6.57;91.12
38225;BME280;24025;48.138;11.428;2023-11-21T06:21:05;95005.06;;;6.58;90.72
38225;BME280;24025;48.138;11.428;2023-11-21T06:23:36;95009.25;;;6.59;91.76
38225;BME280;24025;48.138;11.428;2023-11-21T06:26:08;95020.47;;;6.52;91.59
38225;BME280;24025;48.138;11.428;2023-11-21T06:28:40;95015.47;;;6.67;90.98
38225;BME280;24025;48.138;11.428;2023-11-21T06:31:12;95016.38;;;6.74;91.14
38225;BME280;24025;48.138;11.428;2023-11-21T06:33:45;95018.03;;;6.82;90.44
38225;BME280;24025;48.138;11.428;2023-11-21T06:36:17;95013.31;;;6.72;90.55
38225;BME280;24025;48.138;11.428;2023-11-21T06:38:49;95016.38;;;6.74;90.22
38225;BME280;24025;48.138;11.428;2023-11-21T06:41:20;95015.66;;;6.77;90.24
38225;BME280;24025;48.138;11.428;2023-11-21T06:43:52;95015.53;;;6.70;89.77
38225;BME280;24025;48.138;11.428;2023-11-21T06:46:24;95017.63;;;6.61;90.42
38225;BME280;24025;48.138;11.428;2023-11-21T06:48:56;95018.59;;;6.72;89.75
38225;BME280;24025;48.138;11.428;2023-11-21T06:51:27;95025.75;;;6.52;89.89
38225;BME280;24025;48.138;11.428;2023-11-21T06:53:59;95023.63;;;6.58;90.20
38225;BME280;24025;48.138;11.428;2023-11-21T06:56:31;95034.97;;;6.59;90.08
38225;BME280;24025;48.138;11.428;2023-11-21T06:59:02;95033.44;;;6.58;89.63
38225;BME280;24025;48.138;11.428;2023-11-21T07:01:37;95043.97;;;6.54;89.96
38225;BME280;24025;48.138;11.428;2023-11-21T07:04:10;95037.78;;;6.46;90.15
38225;BME280;24025;48.138;11.428;2023-11-21T07:06:42;95046.91;;;6.49;90.71
38225;BME280;24025;48.138;11.428;2023-11-21T07:09:14;95046.19;;;6.52;89.58
38225;BME280;24025;48.138;11.428;2023-11-21T07:11:47;95039.72;;;6.49;89.79
38225;BME280;24025;48.138;11.428;2023-11-21T07:14:19;95048.44;;;6.50;90.16
38225;BME280;24025;48.138;11.428;2023-11-21T07:16:51;95053.31;;;6.48;89.30
38225;BME280;24025;48.138;11.428;2023-11-21T07:19:24;95056.88;;;6.56;87.99
38225;BME280;24025;48.138;11.428;2023-11-21T07:21:56;95059.31;;;6.64;88.61
38225;BME280;24025;48.138;11.428;2023-11-21T07:24:27;95057.44;;;6.65;87.64
38225;BME280;24025;48.138;11.428;2023-11-21T07:26:59;95062.53;;;6.73;87.35
38225;BME280;24025;48.138;11.428;2023-11-21T07:29:32;95069.50;;;6.81;87.14
38225;BME280;24025;48.138;11.428;2023-11-21T07:32:04;95069.50;;;6.81;86.39
38225;BME280;24025;48.138;11.428;2023-11-21T07:34:37;95068.94;;;6.92;85.66
38225;BME280;24025;48.138;11.428;2023-11-21T07:37:08;95072.78;;;6.94;86.26
38225;BME280;24025;48.138;11.428;2023-11-21T07:39:40;95068.22;;;6.95;85.80
38225;BME280;24025;48.138;11.428;2023-11-21T07:42:13;95069.50;;;7.01;85.93
38225;BME280;24025;48.138;11.428;2023-11-21T07:44:45;95070.53;;;6.96;85.86
38225;BME280;24025;48.138;11.428;2023-11-21T07:47:17;95063.06;;;7.02;85.68
38225;BME280;24025;48.138;11.428;2023-11-21T07:49:49;95070.31;;;7.05;85.21
38225;BME280;24025;48.138;11.428;2023-11-21T07:52:21;95067.41;;;7.10;85.46
38225;BME280;24025;48.138;11.428;2023-11-21T07:54:53;95065.56;;;7.14;85.36
38225;BME280;24025;48.138;11.428;2023-11-21T07:57:25;95065.38;;;7.03;84.26
38225;BME280;24025;48.138;11.428;2023-11-21T07:59:57;95068.66;;;7.16;84.31
38225;BME280;24025;48.138;11.428;2023-11-21T08:02:28;95068.78;;;7.04;84.69
38225;BME280;24025;48.138;11.428;2023-11-21T08:05:00;95072.56;;;7.03;85.07
38225;BME280;24025;48.138;11.428;2023-11-21T08:07:33;95065.88;;;7.09;85.02
38225;BME280;24025;48.138;11.428;2023-11-21T08:10:05;95069.41;;;6.97;85.57
38225;BME280;24025;48.138;11.428;2023-11-21T08:12:37;95069.75;;;6.96;85.30
38225;BME280;24025;48.138;11.428;2023-11-21T08:15:09;95067.44;;;7.14;85.63
38225;BME280;24025;48.138;11.428;2023-11-21T08:17:41;95073.72;;;7.25;84.95
38225;BME280;24025;48.138;11.428;2023-11-21T08:20:13;95080.97;;;7.28;84.14
38225;BME280;24025;48.138;11.428;2023-11-21T08:22:48;95075.84;;;7.38;83.48
38225;BME280;24025;48.138;11.428;2023-11-21T08:25:20;95072.84;;;7.40;82.94
38225;BME280;24025;48.138;11.428;2023-11-21T08:27:52;95076.22;;;7.37;82.34
38225;BME280;24025;48.138;11.428;2023-11-21T08:30:23;95074.38;;;7.41;83.58
38225;BME280;24025;48.138;11.428;2023-11-21T08:32:55;95079.44;;;7.50;83.19
38225;BME280;24025;48.138;11.428;2023-11-21T08:35:30;95079.34;;;7.43;83.52
38225;BME280;24025;48.138;11.428;2023-11-21T08:38:03;95077.28;;;7.55;83.38
38225;BME280;24025;48.138;11.428;2023-11-21T08:40:35;95079.00;;;7.67;82.00
38225;BME280;24025;48.138;11.428;2023-11-21T08:43:06;95072.78;;;7.59;82.26
38225;BME280;24025;48.138;11.428;2023-11-21T08:45:40;95063.78;;;7.64;82.45
38225;BME280;24025;48.138;11.428;2023-11-21T08:48:12;95075.63;;;7.47;81.61
38225;BME280;24025;48.138;11.428;2023-11-21T08:50:44;95072.38;;;7.57;82.70
38225;BME280;24025;48.138;11.428;2023-11-21T08:53:15;95085.75;;;7.42;82.55
38225;BME280;24025;48.138;11.428;2023-11-21T08:55:48;95076.97;;;7.37;83.49
38225;BME280;24025;48.138;11.428;2023-11-21T08:58:21;95083.91;;;7.42;83.84
38225;BME280;24025;48.138;11.428;2023-11-21T09:00:53;95082.78;;;7.43;84.42
38225;BME280;24025;48.138;11.428;2023-11-21T09:03:24;95084.75;;;7.50;84.48
38225;BME280;24025;48.138;11.428;2023-11-21T09:05:56;95087.31;;;7.65;83.27
38225;BME280;24025;48.138;11.428;2023-11-21T09:08:27;95086.25;;;7.70;82.47
38225;BME280;24025;48.138;11.428;2023-11-21T09:11:00;95087.19;;;7.58;82.31
38225;BME280;24025;48.138;11.428;2023-11-21T09:13:32;95092.16;;;7.60;82.75
38225;BME280;24025;48.138;11.428;2023-11-21T09:16:04;95092.56;;;7.62;83.35
38225;BME280;24025;48.138;11.428;2023-11-21T09:18:37;95094.38;;;7.58;83.42
38225;BME280;24025;48.138;11.428;2023-11-21T09:21:08;95095.16;;;7.58;83.64
38225;BME280;24025;48.138;11.428;2023-11-21T09:23:40;95092.47;;;7.78;83.91
38225;BME280;24025;48.138;11.428;2023-11-21T09:26:12;95098.22;;;8.06;82.40
38225;BME280;24025;48.138;11.428;2023-11-21T09:28:47;95106.63;;;8.12;81.70
38225;BME280;24025;48.138;11.428;2023-11-21T09:31:19;95116.28;;;7.97;82.81
38225;BME280;24025;48.138;11.428;2023-11-21T09:33:54;95116.28;;;7.97;82.42
38225;BME280;24025;48.138;11.428;2023-11-21T09:36:26;95117.59;;;8.10;81.99
38225;BME280;24025;48.138;11.428;2023-11-21T09:38:59;95109.91;;;8.28;82.07
38225;BME280;24025;48.138;11.428;2023-11-21T09:41:36;95115.59;;;8.27;81.54
38225;BME280;24025;48.138;11.428;2023-11-21T09:44:13;95113.22;;;8.21;81.22
38225;BME280;24025;48.138;11.428;2023-11-21T09:46:47;95114.34;;;8.43;81.57
38225;BME280;24025;48.138;11.428;2023-11-21T09:49:23;95117.72;;;8.40;80.88
38225;BME280;24025;48.138;11.428;2023-11-21T09:52:01;95112.22;;;8.56;80.34
38225;BME280;24025;48.138;11.428;2023-11-21T09:54:35;95114.19;;;8.59;80.21
38225;BME280;24025;48.138;11.428;2023-11-21T09:57:07;95109.06;;;8.73;79.97
38225;BME280;24025;48.138;11.428;2023-11-21T09:59:40;95107.22;;;8.77;79.84
38225;BME280;24025;48.138;11.428;2023-11-21T10:02:12;95109.59;;;8.86;79.75
38225;BME280;24025;48.138;11.428;2023-11-21T10:04:46;95099.91;;;9.01;78.66
38225;BME280;24025;48.138;11.428;2023-11-21T10:07:20;95100.19;;;8.92;78.53
38225;BME280;24025;48.138;11.428;2023-11-21T10:09:53;95104.41;;;8.97;78.21
38225;BME280;24025;48.138;11.428;2023-11-21T10:12:26;95109.56;;;8.56;79.01
38225;BME280;24025;48.138;11.428;2023-11-21T10:14:59;95099.97;;;8.48;80.54
38225;BME280;24025;48.138;11.428;2023-11-21T10:17:35;95104.25;;;8.56;80.20
38225;BME280;24025;48.138;11.428;2023-11-21T10:20:14;95112.81;;;8.19;80.33
38225;BME280;24025;48.138;11.428;2023-11-21T10:22:46;95111.50;;;8.06;81.64
38225;BME280;24025;48.138;11.428;2023-11-21T10:25:18;95107.47;;;8.16;81.47
38225;BME280;24025;48.138;11.428;2023-11-21T10:27:57;95109.41;;;8.19;81.91
38225;BME280;24025;48.138;11.428;2023-11-21T10:30:37;95106.69;;;8.15;82.44
38225;BME280;24025;48.138;11.428;2023-11-21T10:33:09;95109.72;;;8.14;82.24
38225;BME280;24025;48.138;11.428;2023-11-21T10:35:48;95112.69;;;8.12;82.79
38225;BME280;24025;48.138;11.428;2023-11-21T10:38:23;95112.56;;;8.28;82.58
38225;BME280;24025;48.138;11.428;2023-11-21T10:40:55;95118.31;;;8.57;81.71
38225;BME280;24025;48.138;11.428;2023-11-21T10:43:27;95115.84;;;8.71;81.41
38225;BME280;24025;48.138;11.428;2023-11-21T10:45:59;95123.94;;;8.78;80.28
38225;BME280;24025;48.138;11.428;2023-11-21T10:48:31;95123.22;;;8.81;79.94
38225;BME280;24025;48.138;11.428;2023-11-21T10:51:08;95114.19;;;8.89;80.16
38225;BME280;24025;48.138;11.428;2023-11-21T10:53:40;95115.69;;;8.87;79.99
38225;BME280;24025;48.138;11.428;2023-11-21T10:56:15;95111.44;;;8.82;80.12
38225;BME280;24025;48.138;11.428;2023-11-21T10:58:51;95106.06;;;8.75;80.32
38225;BME280;24025;48.138;11.428;2023-11-21T11:01:25;95103.84;;;8.80;80.00
38225;BME280;24025;48.138;11.428;2023-11-21T11:04:03;95102.34;;;8.83;79.49
38225;BME280;24025;48.138;11.428;2023-11-21T11:06:37;95101.50;;;8.75;79.81
38225;BME280;24025;48.138;11.428;2023-11-21T11:09:13;95101.28;;;8.58;79.99
38225;BME280;24025;48.138;11.428;2023-11-21T11:11:45;95100.53;;;8.61;80.37
38225;BME280;24025;48.138;11.428;2023-11-21T11:14:18;95104.06;;;8.68;79.84
38225;BME280;24025;48.138;11.428;2023-11-21T11:16:53;95095.75;;;9.03;78.85
38225;BME280;24025;48.138;11.428;2023-11-21T11:19:26;95096.19;;;9.09;78.19
38225;BME280;24025;48.138;11.428;2023-11-21T11:36:35;95094.28;;;9.09;79.17
38225;BME280;24025;48.138;11.428;2023-11-21T11:39:39;95096.31;;;8.86;79.22
38225;BME280;24025;48.138;11.428;2023-11-21T11:42:14;95099.00;;;8.90;80.22
38225;BME280;24025;48.138;11.428;2023-11-21T11:44:48;95093.00;;;8.93;78.87
38225;BME280;24025;48.138;11.428;2023-11-21T11:47:25;95095.75;;;9.03;78.71
38225;BME280;24025;48.138;11.428;2023-11-21T11:52:52;95088.94;;;9.06;77.59
38225;BME280;24025;48.138;11.428;2023-11-21T11:55:26;95095.00;;;9.03;77.88
38225;BME280;24025;48.138;11.428;2023-11-21T11:58:05;95098.03;;;9.01;77.58
38225;BME280;24025;48.138;11.428;2023-11-21T12:00:37;95096.44;;;8.97;77.89
38225;BME280;24025;48.138;11.428;2023-11-21T12:03:11;95093.03;;;9.00;77.57
38225;BME280;24025;48.138;11.428;2023-11-21T12:05:46;95097.94;;;9.28;76.73
38225;BME280;24025;48.138;11.428;2023-11-21T12:08:18;95089.00;;;9.47;75.88
38225;BME280;24025;48.138;11.428;2023-11-21T12:10:50;95096.28;;;9.53;75.69
38225;BME280;24025;48.138;11.428;2023-11-21T12:13:27;95087.13;;;9.51;74.57
38225;BME280;24025;48.138;11.428;2023-11-21T12:15:59;95085.97;;;9.48;74.06
38225;BME280;24025;48.138;11.428;2023-11-21T12:18:31;95094.00;;;9.92;73.48
38225;BME280;24025;48.138;11.428;2023-11-21T12:21:03;95099.72;;;9.94;72.47
38225;BME280;24025;48.138;11.428;2023-11-21T12:23:36;95089.94;;;10.09;71.83
38225;BME280;24025;48.138;11.428;2023-11-21T12:26:08;95088.91;;;10.25;70.66
38225;BME280;24025;48.138;11.428;2023-11-21T12:28:40;95093.44;;;10.17;71.51
38225;BME280;24025;48.138;11.428;2023-11-21T12:31:11;95093.22;;;10.36;71.11
38225;BME280;24025;48.138;11.428;2023-11-21T12:33:52;95091.59;;;10.25;71.18
38225;BME280;24025;48.138;11.428;2023-11-21T12:36:24;95094.28;;;10.28;71.02
38225;BME280;24025;48.138;11.428;2023-11-21T12:38:56;95090.59;;;10.43;69.47
38225;BME280;24025;48.138;11.428;2023-11-21T12:41:28;95088.00;;;10.06;70.04
38225;BME280;24025;48.138;11.428;2023-11-21T12:44:00;95094.41;;;9.98;71.96
38225;BME280;24025;48.138;11.428;2023-11-21T12:46:32;95093.66;;;9.57;74.05
38225;BME280;24025;48.138;11.428;2023-11-21T12:49:05;95096.03;;;9.65;75.01
38225;BME280;24025;48.138;11.428;2023-11-21T12:51:37;95095.34;;;9.35;78.59
38225;BME280;24025;48.138;11.428;2023-11-21T12:54:09;95095.41;;;9.39;77.93
38225;BME280;24025;48.138;11.428;2023-11-21T12:56:41;95100.34;;;9.40;77.91
38225;BME280;24025;48.138;11.428;2023-11-21T12:59:13;95098.81;;;9.39;78.16
38225;BME280;24025;48.138;11.428;2023-11-21T13:01:47;95099.22;;;9.41;78.17
38225;BME280;24025;48.138;11.428;2023-11-21T13:04:30;95104.91;;;9.40;77.10
38225;BME280;24025;48.138;11.428;2023-11-21T13:07:03;95100.56;;;9.24;78.07
38225;BME280;24025;48.138;11.428;2023-11-21T13:09:44;95102.63;;;9.04;77.80
38225;BME280;24025;48.138;11.428;2023-11-21T13:12:16;95103.34;;;9.01;77.73
38225;BME280;24025;48.138;11.428;2023-11-21T13:14:50;95103.88;;;9.18;78.82
38225;BME280;24025;48.138;11.428;2023-11-21T13:17:23;95106.25;;;9.23;78.06
38225;BME280;24025;48.138;11.428;2023-11-21T13:19:56;95106.06;;;9.08;77.34
38225;BME280;24025;48.138;11.428;2023-11-21T13:22:29;95107.31;;;9.18;76.58
38225;BME280;24025;48.138;11.428;2023-11-21T13:25:00;95110.66;;;9.45;77.04
38225;BME280;24025;48.138;11.428;2023-11-21T13:27:38;95110.16;;;9.36;75.95
38225;BME280;24025;48.138;11.428;2023-11-21T13:30:10;95111.16;;;9.58;75.96
38225;BME280;24025;48.138;11.428;2023-11-21T13:32:43;95121.38;;;9.89;74.10
38225;BME280;24025;48.138;11.428;2023-11-21T13:35:16;95120.72;;;9.62;74.66
38225;BME280;24025;48.138;11.428;2023-11-21T13:38:09;95119.00;;;9.81;73.78
38225;BME280;24025;48.138;11.428;2023-11-21T13:40:41;95125.50;;;9.87;74.04
38225;BME280;24025;48.138;11.428;2023-11-21T13:43:22;95120.13;;;9.80;73.90
38225;BME280;24025;48.138;11.428;2023-11-21T13:45:56;95123.19;;;9.82;73.76